^^
WestSenecaWeather Station Historical Data
 
Daily Summary for April 26, 2018 Units:  English    Metric   Both
Daily Weekly Monthly Yearly Custom
  Current: High: Low: Average:
Temperature: 47.0 °F 47.1 °F 37.4 °F 40.2 °F
Dew Point: 35.8 °F 38.7 °F 35.5 °F 36.8 °F
Humidity: 65% 97% 64% 88%
Wind Speed: 16.1mph 19.6mph 2.0mph 8.7mph
Wind Gust: 16.1mph 20.0mph - -
WindNorth - - South
Pressure: 29.90 in 29.90 in 29.78 in -
Precipitation: 0.03 in      
Historical Graphs
 
 
Tabular Data for April 26, 2018
Time Temperature Dew Point Pressure Wind Wind Speed Wind Gust Humidity Rainfall Rate (Hourly) solar
00:00 39.7 °F 38.7 °F 29.80 in NE 6.9 mph 6.9 mph 96% 0.01 in 0.0 W/m2
00:05 39.6 °F 38.6 °F 29.80 in NNE 8.1 mph 8.1 mph 96% 0.01 in 0.0 W/m2
00:10 39.4 °F 38.4 °F 29.80 in NNE 6.0 mph 9.0 mph 96% 0.00 in 0.0 W/m2
00:15 39.2 °F 38.2 °F 29.80 in NNE 5.0 mph 13.0 mph 96% 0.00 in 0.0 W/m2
00:20 39.1 °F 38.1 °F 29.80 in NNW 8.1 mph 8.1 mph 96% 0.02 in 0.0 W/m2
00:25 38.9 °F 37.9 °F 29.80 in ENE 11.5 mph 11.5 mph 96% 0.01 in 0.0 W/m2
00:30 38.8 °F 37.8 °F 29.80 in NE 11.5 mph 11.5 mph 96% 0.01 in 0.0 W/m2
00:35 38.7 °F 37.7 °F 29.80 in ENE 9.2 mph 9.2 mph 96% 0.01 in 0.0 W/m2
00:40 38.6 °F 37.8 °F 29.80 in NNE 6.9 mph 6.9 mph 97% 0.01 in 0.0 W/m2
00:45 38.6 °F 37.8 °F 29.80 in North 3.0 mph 10.0 mph 97% 0.00 in 0.0 W/m2
00:50 38.6 °F 37.6 °F 29.80 in ENE 5.8 mph 5.8 mph 96% 0.01 in 0.0 W/m2
00:55 38.5 °F 37.5 °F 29.80 in North 11.5 mph 11.5 mph 96% 0.01 in 0.0 W/m2
01:00 38.4 °F 37.4 °F 29.80 in NNE 10.0 mph 10.0 mph 96% 0.01 in 0.0 W/m2
01:05 38.2 °F 37.2 °F 29.80 in North 12.7 mph 12.7 mph 96% 0.02 in 0.0 W/m2
01:10 38.2 °F 37.2 °F 29.80 in North 10.4 mph 10.4 mph 96% 0.02 in 0.0 W/m2
01:15 38.1 °F 37.1 °F 29.80 in North 10.0 mph 10.0 mph 96% 0.02 in 0.0 W/m2
01:20 37.9 °F 36.9 °F 29.80 in NNW 11.5 mph 11.5 mph 96% 0.01 in 0.0 W/m2
01:25 37.8 °F 36.8 °F 29.80 in NNE 10.4 mph 10.4 mph 96% 0.01 in 0.0 W/m2
01:30 37.8 °F 36.8 °F 29.80 in ENE 10.4 mph 10.4 mph 96% 0.01 in 0.0 W/m2
01:35 37.7 °F 36.7 °F 29.80 in NNW 6.9 mph 6.9 mph 96% 0.01 in 0.0 W/m2
01:40 37.7 °F 36.6 °F 29.80 in North 6.0 mph 10.0 mph 96% 0.00 in 0.0 W/m2
01:45 37.6 °F 36.6 °F 29.79 in NNE 8.1 mph 8.1 mph 96% 0.01 in 0.0 W/m2
01:50 37.6 °F 36.6 °F 29.79 in NNE 5.0 mph 5.0 mph 96% 0.01 in 0.0 W/m2
01:55 37.5 °F 36.5 °F 29.79 in NE 4.6 mph 4.6 mph 96% 0.01 in 0.0 W/m2
02:00 37.5 °F 36.5 °F 29.79 in North 6.9 mph 6.9 mph 96% 0.01 in 0.0 W/m2
02:05 37.5 °F 36.5 °F 29.79 in North 5.8 mph 5.8 mph 96% 0.00 in 0.0 W/m2
02:10 37.6 °F 36.6 °F 29.79 in NNE 4.6 mph 4.6 mph 96% 0.00 in 0.0 W/m2
02:15 37.5 °F 36.5 °F 29.79 in North 8.1 mph 8.1 mph 96% 0.00 in 0.0 W/m2
02:20 37.5 °F 36.5 °F 29.79 in NW 10.4 mph 10.4 mph 96% 0.00 in 0.0 W/m2
02:25 37.5 °F 36.5 °F 29.79 in NW 10.4 mph 10.4 mph 96% 0.00 in 0.0 W/m2
02:30 37.5 °F 36.2 °F 29.79 in North 11.5 mph 11.5 mph 95% 0.00 in 0.0 W/m2
02:35 37.5 °F 36.2 °F 29.79 in East 10.4 mph 10.4 mph 95% 0.00 in 0.0 W/m2
02:40 37.6 °F 36.3 °F 29.79 in North 4.6 mph 4.9 mph 95% 0.00 in 0.0 W/m2
02:45 37.5 °F 36.2 °F 29.79 in North 11.5 mph 11.5 mph 95% 0.00 in 0.0 W/m2
02:50 37.6 °F 36.3 °F 29.79 in NNW 11.5 mph 11.5 mph 95% 0.00 in 0.0 W/m2
02:55 37.6 °F 36.3 °F 29.79 in ENE 12.7 mph 12.7 mph 95% 0.00 in 0.0 W/m2
03:00 37.6 °F 36.3 °F 29.78 in NNW 5.0 mph 12.0 mph 95% 0.00 in 0.0 W/m2
03:05 37.5 °F 36.2 °F 29.78 in NNW 5.0 mph 12.0 mph 95% 0.00 in 0.0 W/m2
03:10 37.6 °F 36.3 °F 29.78 in North 3.0 mph 8.0 mph 95% 0.00 in 0.0 W/m2
03:15 37.6 °F 36.3 °F 29.78 in North 9.2 mph 9.2 mph 95% 0.00 in 0.0 W/m2
03:20 37.6 °F 36.3 °F 29.78 in North 2.0 mph 12.0 mph 95% 0.00 in 0.0 W/m2
03:25 37.6 °F 36.3 °F 29.78 in North 5.0 mph 12.0 mph 95% 0.00 in 0.0 W/m2
03:30 37.5 °F 36.2 °F 29.78 in NNE 3.0 mph 9.0 mph 95% 0.00 in 0.0 W/m2
03:35 37.5 °F 36.2 °F 29.78 in NNE 5.0 mph 9.0 mph 95% 0.00 in 0.0 W/m2
03:40 37.5 °F 36.2 °F 29.79 in North 6.9 mph 6.9 mph 95% 0.00 in 0.0 W/m2
03:45 37.5 °F 36.2 °F 29.79 in NE 11.5 mph 11.5 mph 95% 0.00 in 0.0 W/m2
03:50 37.4 °F 36.1 °F 29.79 in NNE 9.2 mph 9.2 mph 95% 0.00 in 0.0 W/m2
03:55 37.4 °F 36.1 °F 29.79 in NNW 5.8 mph 5.8 mph 95% 0.00 in 0.0 W/m2
04:00 37.4 °F 36.1 °F 29.79 in NW 9.2 mph 9.2 mph 95% 0.00 in 0.0 W/m2
04:05 37.4 °F 36.1 °F 29.79 in North 10.4 mph 10.4 mph 95% 0.00 in 0.0 W/m2
04:10 37.4 °F 36.1 °F 29.79 in NE 6.9 mph 6.9 mph 95% 0.00 in 0.0 W/m2
04:15 37.5 °F 36.2 °F 29.79 in NNE 8.1 mph 8.1 mph 95% 0.00 in 0.0 W/m2
04:20 37.5 °F 36.2 °F 29.79 in North 6.0 mph 10.0 mph 95% 0.00 in 0.0 W/m2
04:25 37.5 °F 36.2 °F 29.79 in North 5.0 mph 8.0 mph 95% 0.00 in 0.0 W/m2
04:30 37.5 °F 36.2 °F 29.79 in NE 5.0 mph 5.0 mph 95% 0.00 in 0.0 W/m2
04:35 37.6 °F 36.3 °F 29.79 in NNW 8.1 mph 8.1 mph 95% 0.00 in 0.0 W/m2
04:40 37.5 °F 36.2 °F 29.79 in NE 8.1 mph 8.1 mph 95% 0.00 in 0.0 W/m2
04:45 37.5 °F 36.2 °F 29.79 in North 6.9 mph 6.9 mph 95% 0.00 in 0.0 W/m2
04:50 37.5 °F 36.2 °F 29.79 in North 5.0 mph 12.0 mph 95% 0.00 in 0.0 W/m2
04:55 37.5 °F 36.2 °F 29.79 in North 5.0 mph 12.0 mph 95% 0.00 in 0.0 W/m2
05:00 37.5 °F 36.2 °F 29.79 in North 5.0 mph 9.0 mph 95% 0.00 in 0.0 W/m2
05:05 37.6 °F 36.3 °F 29.80 in NE 6.0 mph 6.0 mph 95% 0.00 in 0.0 W/m2
05:10 37.7 °F 36.4 °F 29.80 in NNE 5.8 mph 5.8 mph 95% 0.00 in 0.0 W/m2
05:15 37.7 °F 36.4 °F 29.80 in North 5.0 mph 5.0 mph 95% 0.00 in 0.0 W/m2
05:20 37.7 °F 36.4 °F 29.80 in NE 3.5 mph 3.5 mph 95% 0.00 in 0.0 W/m2
05:25 37.6 °F 36.3 °F 29.79 in NNE 6.9 mph 6.9 mph 95% 0.00 in 0.0 W/m2
05:30 37.6 °F 36.3 °F 29.80 in NNE 6.9 mph 6.9 mph 95% 0.00 in 0.0 W/m2
05:35 37.6 °F 36.3 °F 29.80 in NE 8.1 mph 8.1 mph 95% 0.00 in 0.0 W/m2
05:40 37.6 °F 36.3 °F 29.80 in ENE 6.9 mph 6.9 mph 95% 0.00 in 0.0 W/m2
05:45 37.6 °F 36.6 °F 29.80 in NW 6.0 mph 6.0 mph 96% 0.00 in 0.0 W/m2
05:50 37.7 °F 36.4 °F 29.80 in NNE 4.0 mph 4.0 mph 95% 0.00 in 0.0 W/m2
05:55 37.7 °F 36.7 °F 29.80 in NNE 8.1 mph 8.1 mph 96% 0.00 in 0.0 W/m2
06:00 37.6 °F 36.6 °F 29.80 in SE 11.5 mph 11.5 mph 96% 0.00 in 0.0 W/m2
06:05 37.7 °F 36.7 °F 29.80 in NE 3.5 mph 3.7 mph 96% 0.00 in 0.0 W/m2
06:10 37.7 °F 36.7 °F 29.80 in NNW 4.6 mph 4.6 mph 96% 0.00 in 0.0 W/m2
06:15 37.6 °F 36.6 °F 29.81 in NE 6.9 mph 6.9 mph 96% 0.00 in 0.0 W/m2
06:20 37.6 °F 36.6 °F 29.81 in NNW 6.9 mph 6.9 mph 96% 0.00 in 0.0 W/m2
06:25 37.7 °F 36.7 °F 29.81 in NNE 4.6 mph 4.6 mph 96% 0.00 in 0.0 W/m2
06:30 37.7 °F 36.7 °F 29.81 in ENE 6.9 mph 6.9 mph 96% 0.00 in 0.0 W/m2
06:35 37.7 °F 36.7 °F 29.82 in NNW 4.6 mph 4.6 mph 96% 0.00 in 0.0 W/m2
06:40 37.8 °F 36.8 °F 29.82 in NE 4.6 mph 4.6 mph 96% 0.00 in 0.0 W/m2
06:45 37.8 °F 36.8 °F 29.82 in NNE 6.9 mph 6.9 mph 96% 0.00 in 0.0 W/m2
06:50 37.8 °F 36.8 °F 29.82 in NNW 9.2 mph 9.2 mph 96% 0.00 in 0.0 W/m2
06:55 37.8 °F 36.8 °F 29.82 in NNE 4.6 mph 4.6 mph 96% 0.00 in 0.0 W/m2
07:00 37.8 °F 36.8 °F 29.82 in NNE 4.6 mph 4.6 mph 96% 0.00 in 0.0 W/m2
07:05 37.9 °F 36.9 °F 29.83 in NNE 8.1 mph 8.1 mph 96% 0.00 in 0.0 W/m2
07:10 37.9 °F 36.9 °F 29.83 in NE 4.6 mph 4.6 mph 96% 0.01 in 0.0 W/m2
07:15 38.0 °F 37.0 °F 29.83 in NNE 2.0 mph 8.0 mph 96% 0.00 in 0.0 W/m2
07:20 38.1 °F 37.1 °F 29.83 in NNW 8.1 mph 8.1 mph 96% 0.01 in 0.0 W/m2
07:25 38.2 °F 37.2 °F 29.84 in NNE 5.0 mph 10.0 mph 96% 0.00 in 0.0 W/m2
07:30 38.2 °F 36.9 °F 29.84 in North 4.6 mph 4.6 mph 95% 0.01 in 0.0 W/m2
07:35 38.3 °F 37.0 °F 29.84 in ENE 11.0 mph 11.0 mph 95% 0.01 in 0.0 W/m2
07:40 38.4 °F 37.1 °F 29.84 in NNE 2.0 mph 12.0 mph 95% 0.00 in 0.0 W/m2
07:45 38.4 °F 37.1 °F 29.84 in North 3.0 mph 7.0 mph 95% 0.00 in 0.0 W/m2
07:50 38.3 °F 37.0 °F 29.84 in NE 10.4 mph 10.4 mph 95% 0.01 in 0.0 W/m2
07:55 38.5 °F 37.2 °F 29.85 in NE 7.0 mph 7.0 mph 95% 0.01 in 0.0 W/m2
08:00 38.5 °F 36.9 °F 29.85 in NNW 8.1 mph 8.1 mph 94% 0.01 in 0.0 W/m2
08:05 38.6 °F 37.0 °F 29.85 in North 6.9 mph 6.9 mph 94% 0.01 in 0.0 W/m2
08:10 38.6 °F 37.0 °F 29.85 in North 10.4 mph 10.4 mph 94% 0.00 in 0.0 W/m2
08:15 38.5 °F 36.9 °F 29.85 in NNW 11.5 mph 11.5 mph 94% 0.00 in 0.0 W/m2
08:20 38.4 °F 36.8 °F 29.86 in NNW 10.4 mph 10.4 mph 94% 0.00 in 0.0 W/m2
08:25 38.3 °F 36.5 °F 29.86 in North 5.0 mph 14.0 mph 93% 0.00 in 0.0 W/m2
08:30 38.1 °F 36.3 °F 29.86 in NNE 8.0 mph 14.0 mph 93% 0.00 in 0.0 W/m2
08:35 38.0 °F 36.2 °F 29.87 in NNE 5.0 mph 14.0 mph 93% 0.00 in 0.0 W/m2
08:40 37.9 °F 36.3 °F 29.87 in NNW 11.5 mph 11.5 mph 94% 0.00 in 0.0 W/m2
08:45 37.9 °F 36.3 °F 29.87 in North 7.0 mph 14.0 mph 94% 0.00 in 0.0 W/m2
08:50 37.9 °F 36.1 °F 29.87 in NNW 6.0 mph 15.0 mph 93% 0.00 in 0.0 W/m2
08:55 38.0 °F 36.2 °F 29.87 in NNW 6.0 mph 12.0 mph 93% 0.00 in 0.0 W/m2
09:00 38.0 °F 36.2 °F 29.87 in North 5.0 mph 16.0 mph 93% 0.00 in 0.0 W/m2
09:05 38.1 °F 36.3 °F 29.87 in NNE 17.3 mph 17.3 mph 93% 0.00 in 0.0 W/m2
09:10 38.2 °F 36.3 °F 29.87 in North 6.0 mph 13.0 mph 93% 0.00 in 0.0 W/m2
09:15 38.4 °F 36.6 °F 29.87 in NE 15.0 mph 15.0 mph 93% 0.00 in 0.0 W/m2
09:20 38.4 °F 36.3 °F 29.88 in NNE 7.0 mph 14.0 mph 92% 0.00 in 0.0 W/m2
09:25 38.6 °F 36.5 °F 29.87 in North 7.0 mph 14.0 mph 92% 0.00 in 0.0 W/m2
09:30 38.9 °F 36.8 °F 29.88 in North 7.0 mph 12.0 mph 92% 0.00 in 0.0 W/m2
09:35 39.1 °F 36.7 °F 29.88 in North 7.0 mph 13.0 mph 91% 0.00 in 0.0 W/m2
09:40 39.3 °F 36.9 °F 29.88 in North 13.8 mph 13.8 mph 91% 0.00 in 0.0 W/m2
09:45 39.9 °F 37.5 °F 29.88 in North 3.0 mph 10.0 mph 91% 0.00 in 0.0 W/m2
09:50 40.3 °F 37.6 °F 29.88 in NNE 11.5 mph 11.5 mph 90% 0.00 in 0.0 W/m2
09:55 40.0 °F 36.7 °F 29.88 in NNE 7.0 mph 15.0 mph 88% 0.00 in 0.0 W/m2
10:00 39.8 °F 36.8 °F 29.88 in NNE 5.0 mph 12.0 mph 89% 0.00 in 0.0 W/m2
10:05 39.4 °F 36.1 °F 29.88 in North 7.0 mph 16.0 mph 88% 0.00 in 0.0 W/m2
10:10 39.4 °F 36.1 °F 29.89 in North 7.0 mph 13.0 mph 88% 0.00 in 0.0 W/m2
10:15 39.4 °F 36.1 °F 29.89 in NNW 12.0 mph 12.0 mph 88% 0.00 in 0.0 W/m2
10:20 39.3 °F 36.4 °F 29.89 in North 5.0 mph 12.0 mph 89% 0.00 in 0.0 W/m2
10:25 39.4 °F 36.5 °F 29.89 in North 7.0 mph 17.0 mph 89% 0.00 in 0.0 W/m2
10:30 39.4 °F 36.1 °F 29.89 in NNE 8.0 mph 20.0 mph 88% 0.00 in 0.0 W/m2
10:35 39.6 °F 36.6 °F 29.90 in NNW 11.5 mph 11.5 mph 89% 0.00 in 0.0 W/m2
10:40 40.0 °F 37.0 °F 29.90 in NNW 10.4 mph 10.4 mph 89% 0.00 in 0.0 W/m2
10:45 40.3 °F 36.7 °F 29.90 in NNE 11.5 mph 11.5 mph 87% 0.00 in 0.0 W/m2
10:50 40.6 °F 36.7 °F 29.90 in NNE 7.0 mph 14.0 mph 86% 0.00 in 0.0 W/m2
10:55 40.9 °F 37.0 °F 29.90 in North 9.2 mph 9.2 mph 86% 0.00 in 0.0 W/m2
11:00 41.4 °F 37.5 °F 29.90 in North 10.4 mph 10.4 mph 86% 0.00 in 0.0 W/m2
11:05 41.8 °F 37.3 °F 29.90 in North 9.0 mph 15.0 mph 84% 0.00 in 0.0 W/m2
11:10 42.0 °F 37.2 °F 29.90 in North 9.0 mph 17.0 mph 83% 0.00 in 0.0 W/m2
11:15 42.3 °F 37.5 °F 29.90 in North 6.0 mph 13.0 mph 83% 0.00 in 0.0 W/m2
11:20 42.4 °F 37.3 °F 29.90 in ENE 12.7 mph 12.7 mph 82% 0.00 in 0.0 W/m2
11:25 42.4 °F 37.0 °F 29.90 in North 11.5 mph 11.5 mph 81% 0.00 in 0.0 W/m2
11:30 43.0 °F 37.6 °F 29.90 in North 11.5 mph 11.5 mph 81% 0.00 in 0.0 W/m2
11:35 43.1 °F 37.7 °F 29.90 in North 7.0 mph 7.3 mph 81% 0.00 in 0.0 W/m2
11:40 43.1 °F 37.3 °F 29.90 in North 9.2 mph 9.2 mph 80% 0.00 in 0.0 W/m2
11:45 43.1 °F 36.7 °F 29.90 in North 11.5 mph 11.5 mph 78% 0.00 in 0.0 W/m2
11:50 43.3 °F 37.2 °F 29.90 in North 10.4 mph 10.4 mph 79% 0.00 in 0.0 W/m2
11:55 43.7 °F 37.6 °F 29.90 in North 8.1 mph 8.1 mph 79% 0.00 in 0.0 W/m2
12:00 44.0 °F 37.3 °F 29.90 in NE 13.8 mph 13.8 mph 77% 0.00 in 0.0 W/m2
12:05 43.9 °F 37.2 °F 29.90 in NE 9.2 mph 9.2 mph 77% 0.00 in 0.0 W/m2
12:10 44.1 °F 36.7 °F 29.90 in North 11.5 mph 11.5 mph 75% 0.00 in 0.0 W/m2
12:15 44.1 °F 36.7 °F 29.90 in North 15.0 mph 15.0 mph 75% 0.00 in 0.0 W/m2
12:20 44.0 °F 36.6 °F 29.90 in NW 13.0 mph 13.0 mph 75% 0.00 in 0.0 W/m2
12:25 44.4 °F 38.0 °F 29.90 in NE 9.2 mph 9.2 mph 78% 0.00 in 0.0 W/m2
12:30 44.7 °F 36.9 °F 29.90 in North 13.8 mph 13.8 mph 74% 0.00 in 0.0 W/m2
12:35 45.0 °F 37.6 °F 29.90 in North 10.4 mph 10.4 mph 75% 0.00 in 0.0 W/m2
12:40 45.1 °F 37.3 °F 29.90 in North 9.2 mph 9.2 mph 74% 0.00 in 0.0 W/m2
12:45 45.2 °F 37.4 °F 29.90 in North 10.4 mph 10.4 mph 74% 0.00 in 0.0 W/m2
12:50 45.5 °F 37.7 °F 29.90 in North 10.4 mph 10.4 mph 74% 0.00 in 0.0 W/m2
12:55 45.6 °F 37.4 °F 29.90 in North 11.5 mph 11.5 mph 73% 0.00 in 0.0 W/m2
13:00 45.6 °F 38.1 °F 29.90 in North 10.4 mph 10.4 mph 75% 0.00 in 0.0 W/m2
13:05 45.8 °F 38.0 °F 29.90 in North 9.2 mph 9.2 mph 74% 0.00 in 0.0 W/m2
13:10 46.1 °F 37.9 °F 29.90 in North 8.1 mph 8.1 mph 73% 0.00 in 0.0 W/m2
13:15 45.8 °F 38.0 °F 29.90 in North 6.9 mph 6.9 mph 74% 0.00 in 0.0 W/m2
13:20 45.6 °F 38.1 °F 29.90 in North 10.4 mph 10.4 mph 75% 0.00 in 0.0 W/m2
13:25 46.0 °F 38.5 °F 29.90 in North 6.9 mph 6.9 mph 75% 0.00 in 0.0 W/m2
13:30 46.0 °F 37.5 °F 29.90 in North 13.8 mph 13.8 mph 72% 0.00 in 0.0 W/m2
13:35 45.9 °F 37.0 °F 29.90 in North 11.5 mph 11.5 mph 71% 0.00 in 0.0 W/m2
13:40 46.0 °F 37.1 °F 29.90 in North 12.7 mph 12.7 mph 71% 0.00 in 0.0 W/m2
13:45 46.2 °F 37.3 °F 29.90 in North 11.5 mph 11.5 mph 71% 0.00 in 0.0 W/m2
13:50 46.4 °F 37.5 °F 29.90 in North 9.2 mph 9.2 mph 71% 0.00 in 0.0 W/m2
13:55 46.2 °F 37.3 °F 29.90 in North 11.5 mph 11.5 mph 71% 0.00 in 0.0 W/m2
14:00 46.2 °F 37.3 °F 29.90 in North 10.4 mph 10.4 mph 71% 0.00 in 0.0 W/m2
14:05 46.5 °F 36.5 °F 29.90 in North 15.0 mph 15.0 mph 68% 0.00 in 0.0 W/m2
14:10 46.1 °F 36.5 °F 29.90 in North 10.4 mph 10.4 mph 69% 0.00 in 0.0 W/m2
14:15 45.9 °F 36.3 °F 29.90 in North 12.7 mph 12.7 mph 69% 0.00 in 0.0 W/m2
14:20 46.2 °F 37.0 °F 29.90 in North 14.0 mph 14.0 mph 70% 0.00 in 0.0 W/m2
14:25 46.1 °F 36.1 °F 29.90 in North 17.3 mph 17.3 mph 68% 0.00 in 0.0 W/m2
14:30 46.3 °F 36.3 °F 29.90 in North 11.5 mph 11.5 mph 68% 0.00 in 0.0 W/m2
14:35 46.5 °F 36.1 °F 29.90 in North 15.0 mph 15.0 mph 67% 0.00 in 0.0 W/m2
14:40 46.5 °F 36.1 °F 29.89 in North 10.4 mph 10.4 mph 67% 0.00 in 0.0 W/m2
14:45 46.9 °F 36.5 °F 29.90 in North 11.5 mph 11.5 mph 67% 0.00 in 0.0 W/m2
14:50 47.0 °F 36.2 °F 29.90 in North 12.7 mph 12.7 mph 66% 0.00 in 0.0 W/m2
14:55 47.1 °F 36.3 °F 29.90 in North 11.5 mph 11.5 mph 66% 0.00 in 0.0 W/m2
15:00 46.8 °F 35.6 °F 29.90 in North 18.0 mph 18.0 mph 65% 0.00 in 0.0 W/m2
15:05 46.9 °F 36.1 °F 29.90 in North 19.6 mph 19.6 mph 66% 0.00 in 0.0 W/m2
15:10 47.1 °F 36.3 °F 29.90 in North 19.6 mph 19.6 mph 66% 0.00 in 0.0 W/m2
15:15 47.1 °F 35.5 °F 29.90 in North 19.6 mph 19.6 mph 64% 0.00 in 0.0 W/m2
15:20 46.9 °F 35.7 °F 29.90 in North 12.7 mph 12.7 mph 65% 0.00 in 0.0 W/m2
15:25 47.0 °F 35.8 °F 29.90 in North 16.1 mph 16.1 mph 65% 0.00 in 0.0 W/m2
west seneca weather
Compliments of Weather Underground - 2 mb